Time;durP1;ratioP1;P1;durP2;ratioP2;P2;SDS_P1;SDS_P2;PMS_P1;PMS_P2;Temp;Humidity;BMP_temperature;BMP_pressure;BME280_temperature;BME280_humidity;BME280_pressure;Samples;Min_cycle;Max_cycle;Signal;HPM_P1;HPM_P2
2023/08/15 00:01:06;;;;;;;8.80;7.97;;;23.10;99.90;;;;;;4956269;28;20192;-71
2023/08/15 00:03:32;;;;;;;8.03;7.33;;;23.10;99.90;;;;;;4963536;28;20175;-71
2023/08/15 00:05:58;;;;;;;8.77;8.10;;;23.10;99.90;;;;;;4959525;28;20178;-71
2023/08/15 00:08:23;;;;;;;8.77;8.07;;;23.20;99.90;;;;;;4964057;28;20471;-71
2023/08/15 00:10:49;;;;;;;7.33;6.73;;;23.20;99.90;;;;;;4948546;29;20240;-71
2023/08/15 00:13:14;;;;;;;8.90;8.30;;;23.20;99.90;;;;;;4956913;29;20173;-71
2023/08/15 00:15:40;;;;;;;9.07;8.30;;;23.00;99.90;;;;;;4955074;28;20654;-71
2023/08/15 00:18:06;;;;;;;8.50;7.73;;;23.10;99.90;;;;;;4967635;28;20675;-71
2023/08/15 00:20:31;;;;;;;9.80;8.90;;;23.10;99.90;;;;;;4956395;28;20468;-71
2023/08/15 00:22:57;;;;;;;9.10;8.47;;;23.10;99.90;;;;;;4955500;28;20522;-71
2023/08/15 00:25:23;;;;;;;9.23;8.43;;;23.00;99.90;;;;;;4956756;28;20666;-71
2023/08/15 00:27:49;;;;;;;9.07;8.20;;;22.90;99.90;;;;;;4968237;28;20957;-71
2023/08/15 00:30:14;;;;;;;8.93;8.23;;;23.00;99.90;;;;;;4968058;28;20215;-72
2023/08/15 00:32:40;;;;;;;8.97;8.20;;;23.00;99.90;;;;;;4976020;28;20173;-71
2023/08/15 00:35:06;;;;;;;8.87;8.10;;;23.10;99.90;;;;;;4955351;28;20176;-71
2023/08/15 00:37:32;;;;;;;9.33;8.47;;;23.10;99.90;;;;;;4961984;28;20700;-71
2023/08/15 00:39:57;;;;;;;9.17;8.47;;;23.00;99.90;;;;;;4954934;28;20468;-71
2023/08/15 00:42:23;;;;;;;7.97;7.37;;;23.00;99.90;;;;;;4952470;28;20459;-71
2023/08/15 00:44:48;;;;;;;8.90;8.10;;;22.90;99.90;;;;;;4955941;29;20208;-71
2023/08/15 00:47:14;;;;;;;9.40;8.50;;;22.80;99.90;;;;;;4957866;28;20226;-72
2023/08/15 00:49:43;;;;;;;9.50;8.60;;;22.80;99.90;;;;;;4954627;28;20205;-71
2023/08/15 00:52:11;;;;;;;10.13;9.10;;;22.80;99.90;;;;;;4956227;29;20232;-71
2023/08/15 00:54:38;;;;;;;9.47;8.50;;;22.80;99.90;;;;;;4956313;29;20420;-71
2023/08/15 00:57:05;;;;;;;9.33;8.63;;;22.80;99.90;;;;;;4950781;29;20519;-71
2023/08/15 00:59:32;;;;;;;8.30;7.50;;;22.80;99.90;;;;;;4961819;28;20447;-71
2023/08/15 01:01:59;;;;;;;8.93;8.23;;;22.80;99.90;;;;;;4963142;28;20465;-71
2023/08/15 01:04:26;;;;;;;9.20;8.43;;;22.70;99.90;;;;;;4938739;29;20435;-71
2023/08/15 01:06:51;;;;;;;8.57;7.60;;;22.70;99.90;;;;;;4954715;28;20519;-71
2023/08/15 01:09:17;;;;;;;8.80;8.20;;;22.60;99.90;;;;;;4955814;28;20637;-71
2023/08/15 01:12:09;;;;;;;7.97;7.10;;;22.60;99.90;;;;;;4962410;28;20185;-71
2023/08/15 01:14:45;;;;;;;9.27;8.40;;;22.50;99.90;;;;;;4940375;29;20185;-71
2023/08/15 01:17:15;;;;;;;9.13;8.33;;;22.40;99.90;;;;;;4954171;29;21064;-71
2023/08/15 01:19:53;;;;;;;8.60;7.90;;;22.30;99.90;;;;;;4962694;28;20447;-71
2023/08/15 01:22:26;;;;;;;8.00;7.40;;;22.30;99.90;;;;;;4952999;29;20432;-71
2023/08/15 01:24:53;;;;;;;9.17;8.37;;;22.30;99.90;;;;;;4955730;29;20428;-71
2023/08/15 01:27:18;;;;;;;8.73;8.13;;;22.30;99.90;;;;;;4955000;28;20471;-71
2023/08/15 01:29:44;;;;;;;9.17;8.50;;;22.40;99.90;;;;;;4953472;28;20464;-71
2023/08/15 01:32:28;;;;;;;9.20;8.47;;;22.40;99.90;;;;;;4953854;29;20189;-71
2023/08/15 01:35:06;;;;;;;9.70;8.97;;;22.30;99.90;;;;;;4963445;28;20669;-71
2023/08/15 01:37:35;;;;;;;9.50;8.80;;;22.30;99.90;;;;;;4955367;29;20460;-71
2023/08/15 01:40:03;;;;;;;9.73;8.93;;;22.20;99.90;;;;;;4954099;28;20823;-72
2023/08/15 01:42:29;;;;;;;9.87;8.90;;;22.10;99.90;;;;;;4955317;29;20417;-72
2023/08/15 01:44:56;;;;;;;9.40;8.60;;;22.10;99.90;;;;;;4955507;29;20552;-72
2023/08/15 01:47:22;;;;;;;10.30;9.40;;;22.10;99.90;;;;;;4951651;29;20528;-71
2023/08/15 01:49:48;;;;;;;10.50;9.57;;;22.10;99.90;;;;;;4951832;28;20551;-71
2023/08/15 01:52:13;;;;;;;9.57;8.90;;;22.10;99.90;;;;;;4967380;28;20180;-71
2023/08/15 01:54:40;;;;;;;11.57;10.53;;;22.10;99.90;;;;;;4963937;28;20185;-71
2023/08/15 01:57:05;;;;;;;15.23;9.50;;;22.10;99.90;;;;;;4952808;28;20287;-72
2023/08/15 01:59:31;;;;;;;12.57;11.67;;;22.10;99.90;;;;;;4952990;29;20543;-72
2023/08/15 02:01:56;;;;;;;11.07;10.07;;;22.10;99.90;;;;;;4956330;28;20189;-71
2023/08/15 02:04:22;;;;;;;10.43;9.63;;;22.10;99.90;;;;;;4947314;29;20190;-71
2023/08/15 02:06:47;;;;;;;10.23;9.47;;;22.10;99.90;;;;;;4952227;28;20192;-72
2023/08/15 02:09:13;;;;;;;10.03;9.03;;;22.00;99.90;;;;;;4965475;28;20254;-71
2023/08/15 02:11:39;;;;;;;9.60;8.90;;;22.10;99.90;;;;;;4964082;28;20573;-71
2023/08/15 02:14:04;;;;;;;10.30;9.40;;;22.10;99.90;;;;;;4965091;28;20176;-71
2023/08/15 02:16:30;;;;;;;9.63;7.80;;;22.10;99.90;;;;;;4973911;28;20172;-71
2023/08/15 02:18:55;;;;;;;9.77;9.00;;;22.10;99.90;;;;;;4960216;28;20208;-71
2023/08/15 02:21:21;;;;;;;9.90;9.10;;;22.10;99.90;;;;;;4953699;29;20169;-71
2023/08/15 02:23:46;;;;;;;12.23;9.67;;;22.10;99.90;;;;;;4953041;28;20579;-71
2023/08/15 02:26:12;;;;;;;9.37;8.30;;;22.10;99.90;;;;;;4961772;28;20173;-71
2023/08/15 02:28:37;;;;;;;9.27;8.47;;;22.10;99.90;;;;;;4960906;28;20201;-71
2023/08/15 02:31:05;;;;;;;9.30;8.60;;;22.00;99.90;;;;;;4956400;28;20181;-71
2023/08/15 02:33:32;;;;;;;10.67;8.90;;;22.00;99.90;;;;;;4961419;28;20169;-71
2023/08/15 02:36:04;;;;;;;15.20;13.77;;;21.80;99.90;;;;;;4960670;28;20420;-71
2023/08/15 02:38:29;;;;;;;11.80;10.60;;;21.80;99.90;;;;;;4952510;29;20468;-71
2023/08/15 02:40:55;;;;;;;10.00;9.20;;;21.80;99.90;;;;;;4955214;28;21008;-71
2023/08/15 02:43:21;;;;;;;9.70;9.03;;;21.80;99.90;;;;;;4965470;28;20180;-71
2023/08/15 02:45:46;;;;;;;9.50;8.80;;;21.90;99.90;;;;;;4973814;28;20180;-71
2023/08/15 02:48:12;;;;;;;10.60;9.80;;;21.80;99.90;;;;;;4965214;28;20184;-71
2023/08/15 02:50:37;;;;;;;9.53;8.93;;;21.80;99.90;;;;;;4955056;28;20228;-72
2023/08/15 02:53:03;;;;;;;10.53;9.53;;;21.90;99.90;;;;;;4952920;28;20187;-72
2023/08/15 02:55:28;;;;;;;10.17;9.33;;;22.00;99.90;;;;;;4959908;28;20176;-71
2023/08/15 02:57:54;;;;;;;9.70;9.00;;;21.90;99.90;;;;;;4962884;28;20200;-71
2023/08/15 03:00:19;;;;;;;9.87;9.07;;;21.90;99.90;;;;;;4945488;28;20188;-71
2023/08/15 03:02:45;;;;;;;10.00;9.20;;;21.90;99.90;;;;;;4952443;28;20268;-71
2023/08/15 03:05:11;;;;;;;9.50;8.70;;;22.00;99.90;;;;;;4953140;28;20264;-71
2023/08/15 03:07:36;;;;;;;9.30;8.37;;;22.00;99.90;;;;;;4954044;29;20173;-71
2023/08/15 03:10:02;;;;;;;13.13;11.80;;;21.90;99.90;;;;;;4953270;28;20216;-71
2023/08/15 03:12:29;;;;;;;13.33;12.30;;;21.90;99.90;;;;;;4950135;28;20184;-71
2023/08/15 03:14:56;;;;;;;10.57;9.77;;;21.80;99.90;;;;;;4953834;29;20424;-71
2023/08/15 03:17:22;;;;;;;9.53;8.83;;;21.80;99.90;;;;;;4958105;28;20538;-71
2023/08/15 03:19:47;;;;;;;10.33;9.53;;;21.80;99.90;;;;;;4955776;28;20449;-71
2023/08/15 03:22:13;;;;;;;12.20;9.67;;;21.80;99.90;;;;;;4951759;29;20173;-71
2023/08/15 03:24:38;;;;;;;9.90;9.30;;;21.80;99.90;;;;;;4961812;28;20694;-71
2023/08/15 03:27:04;;;;;;;9.87;9.13;;;21.80;99.90;;;;;;4977088;28;20255;-71
2023/08/15 03:29:29;;;;;;;8.90;8.30;;;21.80;99.90;;;;;;4954691;28;20303;-71
2023/08/15 03:31:57;;;;;;;9.57;8.83;;;21.80;99.90;;;;;;4956002;28;20188;-71
2023/08/15 03:34:23;;;;;;;10.13;9.33;;;21.70;99.90;;;;;;4962360;28;20263;-71
2023/08/15 03:36:49;;;;;;;10.80;9.90;;;21.50;99.90;;;;;;4960049;28;20554;-71
2023/08/15 03:39:14;;;;;;;10.87;9.97;;;21.40;99.90;;;;;;4956916;29;20612;-71
2023/08/15 03:41:40;;;;;;;10.13;9.43;;;21.40;99.90;;;;;;4957616;29;20717;-71
2023/08/15 03:44:05;;;;;;;10.07;9.13;;;21.40;99.90;;;;;;4965050;28;20200;-71
2023/08/15 03:46:31;;;;;;;10.60;9.70;;;21.40;99.90;;;;;;4955958;29;20248;-71
2023/08/15 03:48:56;;;;;;;10.00;8.90;;;21.40;99.90;;;;;;4956591;29;20557;-71
2023/08/15 03:51:22;;;;;;;11.63;10.43;;;21.40;99.90;;;;;;4957774;29;20857;-71
2023/08/15 03:53:47;;;;;;;10.97;9.97;;;21.40;99.90;;;;;;4956120;28;20177;-71
2023/08/15 03:56:13;;;;;;;11.60;10.40;;;21.40;99.90;;;;;;4955857;28;20189;-71
2023/08/15 03:58:38;;;;;;;12.30;11.40;;;21.40;99.90;;;;;;4963929;28;20255;-71
2023/08/15 04:01:04;;;;;;;10.40;9.50;;;21.50;99.90;;;;;;4976467;28;20179;-71
2023/08/15 04:03:29;;;;;;;14.00;10.20;;;21.40;99.90;;;;;;4957150;28;20177;-72
2023/08/15 04:05:55;;;;;;;10.83;10.03;;;21.50;99.90;;;;;;4966767;28;20180;-71
2023/08/15 04:08:21;;;;;;;11.17;10.10;;;21.40;99.90;;;;;;4975726;28;20593;-71
2023/08/15 04:10:47;;;;;;;11.90;11.00;;;21.40;99.90;;;;;;4970592;28;20260;-72
2023/08/15 04:13:13;;;;;;;11.37;10.47;;;21.40;99.90;;;;;;4956015;29;20191;-71
2023/08/15 04:15:39;;;;;;;12.27;11.20;;;21.30;99.90;;;;;;4967723;28;20498;-71
2023/08/15 04:18:08;;;;;;;11.60;10.40;;;21.30;99.90;;;;;;4953709;28;20890;-71
2023/08/15 04:20:37;;;;;;;11.93;10.93;;;21.30;99.90;;;;;;4955521;28;20464;-71
2023/08/15 04:23:03;;;;;;;13.60;11.00;;;21.30;99.90;;;;;;4956076;29;20416;-71
2023/08/15 04:25:29;;;;;;;10.87;10.03;;;21.20;99.90;;;;;;4963157;28;20472;-71
2023/08/15 04:27:55;;;;;;;12.53;11.23;;;21.10;99.90;;;;;;4966326;28;20851;-71
2023/08/15 04:30:20;;;;;;;12.67;11.43;;;21.00;99.90;;;;;;4970935;28;20196;-72
2023/08/15 04:32:46;;;;;;;11.13;9.87;;;21.00;99.90;;;;;;4953885;29;20185;-71
2023/08/15 04:35:13;;;;;;;13.10;11.03;;;21.00;99.90;;;;;;4954446;29;20196;-72
2023/08/15 04:37:38;;;;;;;13.70;10.80;;;21.00;99.90;;;;;;4960325;28;21031;-71
2023/08/15 04:40:05;;;;;;;11.03;10.00;;;21.10;99.90;;;;;;4965873;28;20490;-71
2023/08/15 04:42:30;;;;;;;11.50;10.57;;;21.20;99.90;;;;;;4967790;28;20168;-72
2023/08/15 04:44:56;;;;;;;10.30;9.57;;;21.20;99.90;;;;;;4969768;28;20443;-71
2023/08/15 04:47:21;;;;;;;10.70;9.80;;;21.30;99.90;;;;;;4967712;28;20173;-72
2023/08/15 04:49:47;;;;;;;10.80;10.00;;;21.40;99.90;;;;;;4958932;28;20228;-72
2023/08/15 04:52:15;;;;;;;10.83;9.93;;;21.40;99.90;;;;;;4951664;29;20182;-71
2023/08/15 04:54:40;;;;;;;11.77;10.83;;;21.40;99.90;;;;;;4951173;28;20732;-71
2023/08/15 04:57:06;;;;;;;11.30;10.30;;;21.40;99.90;;;;;;4957983;28;20462;-72
2023/08/15 04:59:31;;;;;;;10.53;9.77;;;21.40;99.90;;;;;;4966689;28;20205;-71
2023/08/15 05:01:57;;;;;;;10.80;9.83;;;21.50;99.90;;;;;;4952880;28;20177;-71
2023/08/15 05:04:22;;;;;;;11.57;10.67;;;21.50;99.90;;;;;;4955137;28;20177;-72
2023/08/15 05:06:48;;;;;;;11.20;10.20;;;21.60;99.90;;;;;;4953904;28;20185;-72
2023/08/15 05:09:13;;;;;;;10.13;9.33;;;21.80;99.90;;;;;;4958833;28;20208;-71
2023/08/15 05:11:39;;;;;;;10.37;9.37;;;21.80;99.90;;;;;;4959783;28;20173;-71
2023/08/15 05:14:06;;;;;;;11.53;10.63;;;21.90;99.90;;;;;;4962912;28;20216;-71
2023/08/15 05:16:32;;;;;;;11.13;10.23;;;22.00;99.90;;;;;;4954429;28;20187;-71
2023/08/15 05:18:57;;;;;;;10.67;9.90;;;22.10;99.90;;;;;;4954479;28;20453;-71
2023/08/15 05:21:23;;;;;;;12.90;10.87;;;22.30;99.90;;;;;;4955770;29;20934;-71
2023/08/15 05:23:49;;;;;;;10.80;10.10;;;22.40;99.90;;;;;;4955574;28;20267;-71
2023/08/15 05:26:14;;;;;;;11.90;10.83;;;22.50;99.90;;;;;;4960702;28;21149;-71
2023/08/15 05:28:40;;;;;;;10.67;9.93;;;22.60;99.90;;;;;;4961782;28;20231;-71
2023/08/15 05:31:05;;;;;;;10.60;9.60;;;22.90;99.90;;;;;;4954621;28;20189;-71
2023/08/15 05:33:31;;;;;;;10.47;9.57;;;23.10;99.90;;;;;;4953170;29;20185;-71
2023/08/15 05:35:56;;;;;;;10.57;9.47;;;23.30;99.90;;;;;;4957175;28;20181;-71
2023/08/15 05:38:22;;;;;;;10.00;8.30;;;23.40;99.90;;;;;;4949049;28;20575;-71
2023/08/15 05:40:47;;;;;;;10.83;10.03;;;23.60;99.90;;;;;;4962538;28;20187;-71
2023/08/15 05:43:13;;;;;;;9.90;9.10;;;23.70;99.90;;;;;;4967414;28;20169;-71
2023/08/15 05:45:38;;;;;;;10.40;8.87;;;23.80;99.90;;;;;;4954002;28;20184;-71
2023/08/15 05:48:04;;;;;;;10.03;9.00;;;23.90;99.90;;;;;;4956872;28;20176;-71
2023/08/15 05:50:30;;;;;;;9.67;8.77;;;24.00;99.90;;;;;;4956983;28;20204;-71
2023/08/15 05:52:55;;;;;;;9.63;8.60;;;24.20;99.90;;;;;;4954871;29;20435;-71
2023/08/15 05:55:21;;;;;;;10.30;9.50;;;24.50;99.90;;;;;;4961450;28;20188;-71
2023/08/15 05:57:47;;;;;;;9.17;8.37;;;24.70;99.90;;;;;;4952083;28;20675;-69
2023/08/15 06:00:13;;;;;;;14.43;9.80;;;25.00;99.90;;;;;;4957262;28;20262;-69
2023/08/15 06:02:39;;;;;;;10.60;9.80;;;25.10;99.90;;;;;;4958691;28;20420;-69
2023/08/15 06:05:05;;;;;;;10.60;9.53;;;25.10;99.90;;;;;;4956287;28;20187;-69
2023/08/15 06:07:31;;;;;;;9.53;8.80;;;25.00;99.90;;;;;;4955104;28;20927;-69
2023/08/15 06:09:56;;;;;;;9.53;8.83;;;25.00;99.90;;;;;;4950584;28;20221;-70
2023/08/15 06:12:22;;;;;;;11.33;10.30;;;24.90;99.90;;;;;;4949367;29;20249;-69
2023/08/15 06:14:47;;;;;;;9.60;8.80;;;25.00;99.90;;;;;;4954431;29;20209;-70
2023/08/15 06:17:13;;;;;;;10.10;9.50;;;24.90;99.90;;;;;;4954743;29;20733;-70
2023/08/15 06:19:38;;;;;;;9.83;8.93;;;25.00;99.90;;;;;;4949383;28;20201;-64
2023/08/15 06:22:04;;;;;;;9.60;8.80;;;25.00;99.90;;;;;;4964691;28;20176;-66
2023/08/15 06:24:30;;;;;;;10.30;9.37;;;25.10;99.90;;;;;;4951834;28;20178;-65
2023/08/15 06:26:55;;;;;;;9.37;8.20;;;25.20;99.90;;;;;;4948942;28;20946;-65
2023/08/15 06:29:21;;;;;;;9.40;8.63;;;25.20;99.90;;;;;;4946788;29;20193;-65
2023/08/15 06:31:46;;;;;;;9.37;7.87;;;25.30;99.90;;;;;;4938029;28;20212;-66
2023/08/15 06:34:12;;;;;;;11.20;9.03;;;25.30;99.90;;;;;;4954806;28;20355;-65
2023/08/15 06:36:37;;;;;;;9.13;8.33;;;25.20;99.90;;;;;;4960719;28;20210;-66
2023/08/15 06:39:03;;;;;;;9.60;8.80;;;25.00;99.90;;;;;;4958591;28;20770;-70
2023/08/15 06:41:30;;;;;;;9.30;8.50;;;25.20;99.90;;;;;;4955838;28;20175;-67
2023/08/15 06:43:56;;;;;;;8.77;7.97;;;25.60;99.90;;;;;;4951176;28;20176;-68
2023/08/15 06:46:22;;;;;;;8.90;7.90;;;26.00;99.90;;;;;;4938918;28;20481;-69
2023/08/15 06:48:47;;;;;;;9.07;8.27;;;26.20;99.90;;;;;;4963425;28;20737;-65
2023/08/15 06:51:13;;;;;;;9.53;8.70;;;26.40;99.90;;;;;;4958414;28;20185;-68
2023/08/15 06:53:43;;;;;;;9.17;8.37;;;26.60;99.90;;;;;;4963000;28;20180;-67
2023/08/15 06:56:10;;;;;;;9.70;8.80;;;26.90;99.90;;;;;;4943113;29;20189;-66
2023/08/15 06:58:35;;;;;;;8.47;7.77;;;27.20;99.90;;;;;;4950944;28;20460;-66
2023/08/15 07:01:01;;;;;;;9.50;8.03;;;27.30;99.90;;;;;;4953940;28;20451;-66
2023/08/15 07:03:26;;;;;;;8.97;8.03;;;27.40;99.90;;;;;;4955207;28;20249;-66
2023/08/15 07:05:52;;;;;;;8.73;7.90;;;27.30;99.90;;;;;;4951001;28;20734;-66
2023/08/15 07:08:18;;;;;;;9.13;8.33;;;27.30;99.90;;;;;;4951469;29;20220;-68
2023/08/15 07:10:44;;;;;;;8.43;7.70;;;27.50;99.90;;;;;;4952307;29;20204;-67
2023/08/15 07:13:09;;;;;;;9.30;8.60;;;27.50;99.90;;;;;;4943576;28;20211;-66
2023/08/15 07:15:35;;;;;;;8.70;8.10;;;27.40;99.90;;;;;;4947710;28;20953;-66
2023/08/15 07:18:01;;;;;;;9.00;7.90;;;27.60;99.90;;;;;;4951669;28;20224;-66
2023/08/15 07:20:27;;;;;;;8.10;7.30;;;27.90;99.90;;;;;;4957934;28;20201;-68
2023/08/15 07:22:55;;;;;;;12.00;8.73;;;28.60;99.90;;;;;;4953924;28;20833;-66
2023/08/15 07:25:20;;;;;;;9.70;8.77;;;29.10;99.90;;;;;;4967488;28;20230;-66
2023/08/15 07:27:46;;;;;;;8.87;8.13;;;29.60;99.90;;;;;;4959142;28;20452;-65
2023/08/15 07:30:12;;;;;;;8.23;7.53;;;30.00;99.90;;;;;;4951535;28;20228;-70
2023/08/15 07:32:38;;;;;;;8.77;7.50;;;30.40;99.90;;;;;;4951116;28;20193;-68
2023/08/15 07:35:05;;;;;;;14.23;7.80;;;30.80;99.90;;;;;;4952294;29;21007;-66
2023/08/15 07:37:31;;;;;;;9.23;7.77;;;31.30;99.90;;;;;;4949435;28;20213;-66
2023/08/15 07:40:09;;;;;;;8.17;7.40;;;31.30;99.90;;;;;;4945554;29;20530;-66
2023/08/15 07:42:35;;;;;;;8.33;7.27;;;31.50;99.90;;;;;;4949448;29;20212;-67
2023/08/15 07:45:02;;;;;;;8.83;7.70;;;31.30;99.90;;;;;;4944683;28;20884;-65
2023/08/15 07:47:28;;;;;;;8.60;7.77;;;31.60;99.90;;;;;;4950961;28;20519;-66
2023/08/15 07:50:12;;;;;;;8.30;7.60;;;31.90;99.90;;;;;;4951440;29;20954;-66
2023/08/15 07:52:37;;;;;;;7.40;6.90;;;32.20;99.90;;;;;;4948567;28;20267;-66
2023/08/15 07:55:03;;;;;;;7.73;7.00;;;32.00;99.90;;;;;;4950761;28;20531;-66
2023/08/15 07:57:29;;;;;;;7.63;6.93;;;31.80;99.90;;;;;;4953026;29;20221;-66
2023/08/15 07:59:54;;;;;;;11.30;7.47;;;31.30;99.90;;;;;;4949677;29;20255;-69
2023/08/15 08:02:20;;;;;;;8.33;7.53;;;31.40;99.90;;;;;;4940672;28;20265;-69
2023/08/15 08:04:45;;;;;;;9.07;7.20;;;31.60;99.90;;;;;;4953290;28;20192;-66
2023/08/15 08:07:11;;;;;;;8.53;7.93;;;31.90;99.90;;;;;;4957243;28;20227;-70
2023/08/15 08:09:36;;;;;;;8.43;7.63;;;32.60;99.90;;;;;;4959052;28;20602;-66
2023/08/15 08:12:02;;;;;;;7.30;6.80;;;32.60;99.90;;;;;;4964483;28;20564;-67
2023/08/15 08:14:28;;;;;;;8.33;7.53;;;32.90;99.90;;;;;;4960673;28;20921;-67
2023/08/15 08:16:53;;;;;;;8.30;7.70;;;33.00;99.90;;;;;;4955364;29;20185;-66
2023/08/15 08:19:18;;;;;;;7.40;6.80;;;33.30;99.90;;;;;;4955784;28;20663;-66
2023/08/15 08:21:44;;;;;;;7.67;6.97;;;33.20;99.90;;;;;;4954557;29;20192;-66
2023/08/15 08:24:09;;;;;;;6.97;6.47;;;32.20;99.90;;;;;;4948473;28;20197;-66
2023/08/15 08:26:35;;;;;;;9.43;7.20;;;31.50;99.90;;;;;;4961679;28;20530;-67
2023/08/15 08:29:00;;;;;;;10.33;7.23;;;31.10;99.90;;;;;;4960296;28;20300;-66
2023/08/15 08:31:26;;;;;;;8.40;7.60;;;30.60;99.90;;;;;;4950021;29;20207;-67
2023/08/15 08:33:51;;;;;;;7.47;6.87;;;30.50;99.90;;;;;;4948301;28;20243;-67
2023/08/15 08:36:17;;;;;;;7.77;7.07;;;30.30;99.90;;;;;;4954093;28;20304;-66
2023/08/15 08:38:42;;;;;;;8.20;7.47;;;30.20;99.90;;;;;;4952482;28;20262;-67
2023/08/15 08:41:08;;;;;;;8.13;7.43;;;30.70;99.90;;;;;;4953797;28;20238;-68
2023/08/15 08:43:34;;;;;;;7.80;7.30;;;31.30;99.90;;;;;;4956376;28;20185;-67
2023/08/15 08:46:03;;;;;;;8.30;7.50;;;32.10;99.90;;;;;;4950963;28;20651;-67
2023/08/15 08:48:30;;;;;;;9.53;7.13;;;32.50;99.90;;;;;;4951713;28;20483;-67
2023/08/15 08:50:56;;;;;;;9.07;8.47;;;31.70;99.90;;;;;;4953341;28;20456;-66
2023/08/15 08:53:22;;;;;;;9.60;8.80;;;30.80;99.90;;;;;;4951293;28;20453;-67
2023/08/15 08:55:48;;;;;;;8.83;8.03;;;30.50;99.90;;;;;;4951817;28;20562;-66
2023/08/15 08:58:14;;;;;;;9.47;8.43;;;30.30;99.90;;;;;;4953121;28;20208;-68
2023/08/15 09:00:40;;;;;;;7.37;6.87;;;29.80;99.90;;;;;;4954885;29;20567;-66
2023/08/15 09:03:06;;;;;;;8.10;7.37;;;29.80;99.90;;;;;;4964035;28;20277;-68
2023/08/15 09:05:32;;;;;;;8.03;6.20;;;29.50;99.90;;;;;;4953603;28;20630;-66
2023/08/15 09:07:58;;;;;;;13.17;7.30;;;29.80;99.90;;;;;;4955269;28;20181;-66
2023/08/15 09:10:23;;;;;;;7.87;7.30;;;30.20;99.90;;;;;;4959483;28;20501;-66
2023/08/15 09:12:49;;;;;;;8.83;5.67;;;30.40;99.90;;;;;;4949311;29;20185;-66
2023/08/15 09:15:14;;;;;;;6.40;5.90;;;30.70;99.90;;;;;;4950547;28;20757;-65
2023/08/15 09:17:42;;;;;;;5.80;5.20;;;31.10;99.70;;;;;;4953278;28;20212;-66
2023/08/15 09:20:18;;;;;;;9.50;5.63;;;31.70;97.40;;;;;;4952022;28;20304;-67
2023/08/15 09:22:47;;;;;;;5.20;4.53;;;31.50;92.60;;;;;;4954935;28;20475;-65
2023/08/15 09:25:17;;;;;;;6.43;4.60;;;31.40;91.30;;;;;;4954493;28;20440;-66
2023/08/15 09:27:43;;;;;;;5.93;4.60;;;31.20;87.70;;;;;;4962566;28;20826;-67
2023/08/15 09:30:14;;;;;;;5.60;4.70;;;31.10;86.80;;;;;;4953783;28;20969;-68
2023/08/15 09:32:40;;;;;;;4.00;3.60;;;31.10;85.00;;;;;;4954180;28;20572;-67
2023/08/15 09:35:07;;;;;;;4.27;3.87;;;30.80;87.40;;;;;;4928999;29;20927;-66
2023/08/15 09:37:33;;;;;;;5.77;4.40;;;30.60;86.80;;;;;;4958068;28;20989;-68
2023/08/15 09:40:00;;;;;;;3.97;3.57;;;30.40;86.20;;;;;;4946428;28;20463;-66
2023/08/15 09:42:30;;;;;;;4.43;3.90;;;30.40;85.10;;;;;;4954965;29;20778;-67
2023/08/15 09:44:56;;;;;;;6.40;3.77;;;30.40;85.10;;;;;;4955065;29;20435;-65
2023/08/15 09:47:21;;;;;;;4.43;4.10;;;30.50;85.20;;;;;;4950775;28;20531;-66
2023/08/15 09:49:52;;;;;;;3.90;3.60;;;30.70;86.20;;;;;;4950473;28;20247;-66
2023/08/15 09:52:19;;;;;;;7.00;5.10;;;30.80;83.90;;;;;;4952643;29;20519;-66
2023/08/15 09:54:45;;;;;;;4.43;4.03;;;30.90;82.70;;;;;;4963048;28;20428;-65
2023/08/15 09:57:11;;;;;;;4.17;3.87;;;30.40;84.10;;;;;;4966017;28;20538;-65
2023/08/15 09:59:37;;;;;;;5.00;4.10;;;30.30;87.00;;;;;;4952610;29;20476;-65
2023/08/15 10:02:05;;;;;;;5.50;4.00;;;30.50;86.10;;;;;;4954049;29;20196;-66
2023/08/15 10:04:33;;;;;;;5.70;4.33;;;30.60;86.40;;;;;;4952532;28;20471;-65
2023/08/15 10:06:59;;;;;;;5.40;4.70;;;30.50;86.90;;;;;;4950903;28;20885;-65
2023/08/15 10:09:27;;;;;;;5.40;4.27;;;30.40;87.30;;;;;;4954303;28;20472;-66
2023/08/15 10:11:54;;;;;;;5.57;4.77;;;30.30;87.90;;;;;;4948178;28;20443;-68
2023/08/15 10:14:20;;;;;;;4.73;4.23;;;30.30;87.70;;;;;;4942679;28;20483;-66
2023/08/15 10:16:46;;;;;;;4.80;4.50;;;30.20;90.10;;;;;;4946216;28;20452;-67
2023/08/15 10:19:17;;;;;;;5.93;5.43;;;30.00;90.70;;;;;;4948330;28;20471;-66
2023/08/15 10:21:52;;;;;;;5.57;5.07;;;30.00;90.90;;;;;;4953309;29;20212;-67
2023/08/15 10:24:18;;;;;;;4.63;4.23;;;29.90;90.30;;;;;;4952170;29;20440;-66
2023/08/15 10:26:44;;;;;;;4.20;3.70;;;29.80;90.50;;;;;;4947488;28;20500;-69
2023/08/15 10:29:10;;;;;;;6.00;4.27;;;29.70;90.00;;;;;;4950840;28;20201;-67
2023/08/15 10:31:38;;;;;;;3.93;3.53;;;29.70;89.50;;;;;;4953753;29;20421;-65
2023/08/15 10:34:08;;;;;;;5.90;4.87;;;29.70;90.30;;;;;;4949964;28;20181;-66
2023/08/15 10:36:33;;;;;;;5.40;4.50;;;29.90;89.40;;;;;;4947388;29;20989;-66
2023/08/15 10:39:09;;;;;;;8.00;4.27;;;30.20;90.20;;;;;;4946549;28;20486;-65
2023/08/15 10:41:36;;;;;;;4.50;4.20;;;30.60;88.50;;;;;;4948877;28;20177;-64
2023/08/15 10:44:04;;;;;;;5.43;4.50;;;31.10;87.70;;;;;;4953108;29;20909;-66
2023/08/15 10:46:30;;;;;;;7.60;4.03;;;31.90;83.00;;;;;;4948025;28;20873;-67
2023/08/15 10:49:01;;;;;;;4.07;3.47;;;32.10;73.50;;;;;;4957135;28;20500;-65
2023/08/15 10:51:29;;;;;;;3.77;3.47;;;31.90;72.20;;;;;;4941928;28;20182;-67
2023/08/15 10:54:00;;;;;;;3.33;3.10;;;32.00;70.40;;;;;;4947660;28;20515;-67
2023/08/15 10:56:29;;;;;;;3.80;3.40;;;32.30;69.50;;;;;;4948307;29;21010;-67
2023/08/15 10:58:56;;;;;;;4.10;3.73;;;32.50;68.30;;;;;;4945952;28;20475;-68
2023/08/15 11:01:23;;;;;;;7.13;3.37;;;32.00;69.30;;;;;;4951015;28;20448;-68
2023/08/15 11:03:52;;;;;;;3.60;3.30;;;31.70;69.00;;;;;;4949787;28;20440;-68
2023/08/15 11:06:18;;;;;;;6.37;3.60;;;32.00;68.80;;;;;;4951060;29;20864;-67
2023/08/15 11:08:47;;;;;;;3.40;3.20;;;31.70;69.30;;;;;;4951761;28;20481;-68
2023/08/15 11:11:13;;;;;;;4.67;4.27;;;31.60;70.40;;;;;;4952992;28;20447;-69
2023/08/15 11:13:44;;;;;;;4.30;4.00;;;31.50;70.40;;;;;;4949947;29;20440;-68
2023/08/15 11:16:11;;;;;;;4.43;3.83;;;31.00;70.30;;;;;;4945268;28;20448;-68
2023/08/15 11:18:37;;;;;;;4.00;3.70;;;31.10;72.40;;;;;;4960588;28;20559;-69
2023/08/15 11:21:07;;;;;;;3.90;3.60;;;31.60;71.50;;;;;;4943575;28;20535;-68
2023/08/15 11:23:33;;;;;;;5.20;3.10;;;32.70;70.90;;;;;;4942207;29;20817;-69
2023/08/15 11:26:10;;;;;;;4.17;3.77;;;34.70;65.10;;;;;;4947984;28;20515;-68
2023/08/15 11:28:36;;;;;;;4.07;3.67;;;37.00;58.00;;;;;;4947433;28;20444;-69
2023/08/15 11:31:06;;;;;;;3.57;3.30;;;39.10;52.70;;;;;;4954486;28;20447;-69
2023/08/15 11:33:32;;;;;;;5.90;3.30;;;39.10;49.10;;;;;;4953477;28;20511;-68
2023/08/15 11:36:02;;;;;;;3.93;3.50;;;38.50;48.30;;;;;;4933345;28;20481;-68
2023/08/15 11:38:29;;;;;;;4.33;3.90;;;39.70;48.60;;;;;;4962132;28;20215;-68
2023/08/15 11:41:01;;;;;;;4.00;3.70;;;40.00;44.90;;;;;;4951076;28;20444;-68
2023/08/15 11:43:27;;;;;;;5.30;3.60;;;39.90;44.40;;;;;;4950742;28;20432;-68
2023/08/15 11:45:53;;;;;;;3.43;3.20;;;38.80;44.50;;;;;;4953114;28;20448;-68
2023/08/15 11:48:18;;;;;;;7.43;4.30;;;38.80;44.60;;;;;;4949772;28;20445;-72
2023/08/15 11:50:44;;;;;;;4.33;3.90;;;39.40;45.30;;;;;;4953266;28;20200;-70
2023/08/15 11:53:12;;;;;;;4.10;3.70;;;40.80;42.20;;;;;;4952619;29;20195;-71
2023/08/15 11:55:38;;;;;;;5.00;4.10;;;39.70;41.90;;;;;;4953411;29;20197;-70
2023/08/15 11:58:23;;;;;;;5.83;3.13;;;40.40;42.50;;;;;;4964250;28;20502;-71
2023/08/15 12:00:51;;;;;;;4.60;4.20;;;40.90;41.50;;;;;;4949258;28;20452;-71
2023/08/15 12:03:16;;;;;;;4.37;4.00;;;41.70;41.50;;;;;;4953239;28;20898;-71
2023/08/15 12:05:46;;;;;;;4.50;4.10;;;43.70;40.10;;;;;;4954429;28;20535;-72
2023/08/15 12:08:14;;;;;;;5.20;4.60;;;45.40;37.80;;;;;;4946151;28;20683;-71
2023/08/15 12:10:39;;;;;;;4.90;4.47;;;46.60;37.30;;;;;;4947105;28;20535;-72
2023/08/15 12:13:05;;;;;;;5.53;4.90;;;47.10;37.60;;;;;;4952594;28;20448;-71
2023/08/15 12:15:30;;;;;;;5.53;5.10;;;45.10;39.10;;;;;;4951311;28;20192;-72
2023/08/15 12:17:56;;;;;;;6.17;5.60;;;45.40;39.70;;;;;;4948290;29;20205;-72
2023/08/15 12:20:21;;;;;;;5.60;5.20;;;44.80;40.10;;;;;;4959730;28;20611;-72
2023/08/15 12:22:47;;;;;;;5.93;5.00;;;45.40;40.10;;;;;;4968111;28;20188;-71
2023/08/15 12:25:12;;;;;;;5.50;4.93;;;46.10;39.20;;;;;;4954043;28;20260;-71
2023/08/15 12:27:38;;;;;;;5.30;5.00;;;46.80;39.00;;;;;;4960408;28;20647;-71
2023/08/15 12:30:05;;;;;;;6.60;6.10;;;46.40;40.40;;;;;;4953818;29;20212;-72
2023/08/15 12:32:30;;;;;;;5.70;5.30;;;47.50;40.00;;;;;;4953822;29;20245;-68
2023/08/15 12:34:56;;;;;;;6.37;5.90;;;46.90;41.50;;;;;;4955674;28;20991;-72
2023/08/15 12:37:22;;;;;;;5.87;5.47;;;48.60;48.60;;;;;;4955530;28;20221;-72
2023/08/15 12:39:48;;;;;;;6.10;5.60;;;48.90;49.60;;;;;;4948792;28;20292;-70